Mingo, West Virginia
Current Conditions -  °F | °C
As of 11:51 AM on Thursday 30 Oct 2014 (Local Time) from KEKN Reporting Station
Overcast Overcast  
Wind Chill:   Ceiling: 3500
Heat Index:   Visibility: 10mi
Dew Point:   Wind: 0mph
Humidity: 74%   Direction: NA
Pressure: 30.12"   Gusts: NA
Location:  38.5201°N, 80.0382°W
Report Text: KEKN 301551Z AUTO 00000KT 10SM FEW021 OVC035 06/02 A3012 RMK AO2 SLP208 T00610017 TSNO
Loading
Personal Weather Stations






























Interactive Weather Map
Tropical Storm Tracking
New forecast layout! Learn more

10-Day Weather Forecast

Advertisements
Track Severe Weather on mobile